Terminal Aerodrome Forecast
Issued by NWS

Home | Current Version | Previous Version | Text Only | Print | Product List | Glossary On
Versions: 1 2 3 4 5 6 7 8 9 10 11 12 13 14 15
000
FTUS43 KDVN 011720
TAFCID
TAF
KCID 011720Z 0118/0218 07008KT P6SM BKN120
     FM020900 09007KT 5SM BR SCT012 BKN100
     FM021300 09009KT P6SM SCT015=

USA.gov is the U.S. government's official web portal to all federal, state and local government web resources and services.